< < Back
Terminal Aerodrome Forecast


Current Version              Previous Versions:   1  2  3  4  5  6  7  8  9  

Terminal Aerodrome Forecast

438
FTUS42 KGSP 041832 AAA
TAFHKY
TAF AMD
KHKY 041832Z 0419/0518 30004KT P6SM VCTS SCT060CB BKN200
     FM050100 00000KT P6SM SCT150
     FM051500 24005KT P6SM SCT060=

Latest METAR

196
SAUS70 KWBC 050800 RRK
MTRHKY
METAR KHKY 050753Z AUTO 27003KT 10SM CLR 22/17 A3003 RMK AO2 SLP143
T02170172


USA.gov is the U.S. government's official web portal to all federal, state and local government web resources and services.